sensor_id;sensor_type;location;lat;lon;timestamp;pressure;altitude;pressure_sealevel;temperature;humidity
73106;BME280;61559;50.476;15.588;2023-02-19T00:01:52;97495.38;;;6.88;85.76
73106;BME280;61559;50.476;15.588;2023-02-19T00:04:23;97502.41;;;6.90;85.91
73106;BME280;61559;50.476;15.588;2023-02-19T00:06:52;97501.85;;;6.90;85.87
73106;BME280;61559;50.476;15.588;2023-02-19T00:09:24;97497.10;;;6.89;85.90
73106;BME280;61559;50.476;15.588;2023-02-19T00:11:55;97491.16;;;6.90;85.94
73106;BME280;61559;50.476;15.588;2023-02-19T00:14:26;97483.83;;;6.91;85.81
73106;BME280;61559;50.476;15.588;2023-02-19T00:16:57;97485.30;;;6.91;85.82
73106;BME280;61559;50.476;15.588;2023-02-19T00:19:29;97483.26;;;6.93;85.70
73106;BME280;61559;50.476;15.588;2023-02-19T00:22:00;97479.48;;;6.93;85.77
73106;BME280;61559;50.476;15.588;2023-02-19T00:24:31;97478.27;;;6.92;85.64
73106;BME280;61559;50.476;15.588;2023-02-19T00:27:00;97477.18;;;6.93;85.64
73106;BME280;61559;50.476;15.588;2023-02-19T00:29:31;97476.91;;;6.90;85.68
73106;BME280;61559;50.476;15.588;2023-02-19T00:32:03;97472.97;;;6.90;85.63
73106;BME280;61559;50.476;15.588;2023-02-19T00:34:34;97469.60;;;6.90;85.70
73106;BME280;61559;50.476;15.588;2023-02-19T00:37:04;97469.48;;;6.91;85.77
73106;BME280;61559;50.476;15.588;2023-02-19T00:39:35;97473.50;;;6.89;85.79
73106;BME280;61559;50.476;15.588;2023-02-19T00:42:06;97477.20;;;6.89;85.93
73106;BME280;61559;50.476;15.588;2023-02-19T00:44:37;97476.76;;;6.87;86.07
73106;BME280;61559;50.476;15.588;2023-02-19T00:47:08;97480.86;;;6.88;86.24
73106;BME280;61559;50.476;15.588;2023-02-19T00:49:38;97473.02;;;6.85;86.42
73106;BME280;61559;50.476;15.588;2023-02-19T00:52:09;97473.39;;;6.83;86.59
73106;BME280;61559;50.476;15.588;2023-02-19T00:54:40;97479.59;;;6.83;86.74
73106;BME280;61559;50.476;15.588;2023-02-19T00:57:11;97471.21;;;6.82;87.15
73106;BME280;61559;50.476;15.588;2023-02-19T00:59:42;97472.06;;;6.81;87.47
73106;BME280;61559;50.476;15.588;2023-02-19T01:02:12;97466.05;;;6.79;87.91
73106;BME280;61559;50.476;15.588;2023-02-19T01:04:43;97462.90;;;6.75;88.13
73106;BME280;61559;50.476;15.588;2023-02-19T01:07:14;97457.60;;;6.73;88.36
73106;BME280;61559;50.476;15.588;2023-02-19T01:09:43;97461.71;;;6.72;88.30
73106;BME280;61559;50.476;15.588;2023-02-19T01:12:14;97467.47;;;6.70;88.25
73106;BME280;61559;50.476;15.588;2023-02-19T01:14:45;97462.71;;;6.70;88.19
73106;BME280;61559;50.476;15.588;2023-02-19T01:17:16;97463.17;;;6.71;88.24
73106;BME280;61559;50.476;15.588;2023-02-19T01:19:48;97469.72;;;6.70;88.36
73106;BME280;61559;50.476;15.588;2023-02-19T01:22:19;97457.14;;;6.70;88.44
73106;BME280;61559;50.476;15.588;2023-02-19T01:24:50;97445.70;;;6.68;88.56
73106;BME280;61559;50.476;15.588;2023-02-19T01:27:19;97437.04;;;6.66;88.63
73106;BME280;61559;50.476;15.588;2023-02-19T01:29:50;97427.56;;;6.63;88.74
73106;BME280;61559;50.476;15.588;2023-02-19T01:32:20;97424.55;;;6.63;88.64
73106;BME280;61559;50.476;15.588;2023-02-19T01:34:51;97414.09;;;6.61;88.53
73106;BME280;61559;50.476;15.588;2023-02-19T01:37:20;97408.30;;;6.62;88.54
73106;BME280;61559;50.476;15.588;2023-02-19T01:39:51;97406.31;;;6.61;88.61
73106;BME280;61559;50.476;15.588;2023-02-19T01:42:22;97406.73;;;6.61;88.45
73106;BME280;61559;50.476;15.588;2023-02-19T01:47:42;97405.17;;;6.58;88.39
73106;BME280;61559;50.476;15.588;2023-02-19T01:50:14;97403.70;;;6.58;88.37
73106;BME280;61559;50.476;15.588;2023-02-19T01:52:46;97401.82;;;6.57;88.58
73106;BME280;61559;50.476;15.588;2023-02-19T01:55:17;97399.16;;;6.57;88.93
73106;BME280;61559;50.476;15.588;2023-02-19T01:57:47;97393.45;;;6.56;89.16
73106;BME280;61559;50.476;15.588;2023-02-19T02:00:20;97385.38;;;6.54;89.14
73106;BME280;61559;50.476;15.588;2023-02-19T02:02:55;97378.96;;;6.56;89.23
73106;BME280;61559;50.476;15.588;2023-02-19T02:05:36;97368.81;;;6.57;88.98
73106;BME280;61559;50.476;15.588;2023-02-19T02:08:10;97364.23;;;6.58;88.85
73106;BME280;61559;50.476;15.588;2023-02-19T02:10:59;97358.69;;;6.57;88.86
73106;BME280;61559;50.476;15.588;2023-02-19T02:13:31;97350.80;;;6.57;88.69
73106;BME280;61559;50.476;15.588;2023-02-19T02:16:18;97353.73;;;6.59;88.86
73106;BME280;61559;50.476;15.588;2023-02-19T02:19:00;97352.31;;;6.58;88.67
73106;BME280;61559;50.476;15.588;2023-02-19T02:21:54;97346.33;;;6.58;88.84
73106;BME280;61559;50.476;15.588;2023-02-19T02:25:01;97341.23;;;6.57;88.86
73106;BME280;61559;50.476;15.588;2023-02-19T02:27:50;97343.95;;;6.56;89.01
73106;BME280;61559;50.476;15.588;2023-02-19T02:30:29;97339.46;;;6.56;89.27
73106;BME280;61559;50.476;15.588;2023-02-19T02:33:10;97339.54;;;6.55;89.40
73106;BME280;61559;50.476;15.588;2023-02-19T02:35:46;97338.73;;;6.54;89.46
73106;BME280;61559;50.476;15.588;2023-02-19T02:38:21;97338.02;;;6.53;89.53
73106;BME280;61559;50.476;15.588;2023-02-19T02:40:54;97342.53;;;6.53;89.60
73106;BME280;61559;50.476;15.588;2023-02-19T02:43:26;97343.83;;;6.53;89.61
73106;BME280;61559;50.476;15.588;2023-02-19T02:45:58;97346.02;;;6.52;89.54
73106;BME280;61559;50.476;15.588;2023-02-19T02:48:35;97340.86;;;6.52;89.60
73106;BME280;61559;50.476;15.588;2023-02-19T02:51:11;97344.14;;;6.52;89.50
73106;BME280;61559;50.476;15.588;2023-02-19T02:53:48;97342.55;;;6.52;89.33
73106;BME280;61559;50.476;15.588;2023-02-19T02:56:40;97343.16;;;6.53;89.31
73106;BME280;61559;50.476;15.588;2023-02-19T02:59:13;97342.45;;;6.52;89.31
73106;BME280;61559;50.476;15.588;2023-02-19T03:01:48;97336.47;;;6.52;89.31
73106;BME280;61559;50.476;15.588;2023-02-19T03:04:46;97333.59;;;6.52;89.32
73106;BME280;61559;50.476;15.588;2023-02-19T03:07:40;97332.00;;;6.53;89.21
73106;BME280;61559;50.476;15.588;2023-02-19T03:10:16;97326.84;;;6.52;89.26
73106;BME280;61559;50.476;15.588;2023-02-19T03:12:52;97328.00;;;6.53;89.24
73106;BME280;61559;50.476;15.588;2023-02-19T03:15:48;97326.36;;;6.53;89.25
73106;BME280;61559;50.476;15.588;2023-02-19T03:18:39;97326.50;;;6.51;89.31
73106;BME280;61559;50.476;15.588;2023-02-19T03:21:29;97318.95;;;6.50;89.38
73106;BME280;61559;50.476;15.588;2023-02-19T03:24:06;97313.05;;;6.47;89.40
73106;BME280;61559;50.476;15.588;2023-02-19T03:27:00;97315.13;;;6.44;89.64
73106;BME280;61559;50.476;15.588;2023-02-19T03:29:32;97316.24;;;6.41;89.69
73106;BME280;61559;50.476;15.588;2023-02-19T03:32:09;97313.67;;;6.39;89.86
73106;BME280;61559;50.476;15.588;2023-02-19T03:34:45;97299.75;;;6.37;89.95
73106;BME280;61559;50.476;15.588;2023-02-19T03:37:21;97292.48;;;6.33;90.20
73106;BME280;61559;50.476;15.588;2023-02-19T03:39:55;97291.58;;;6.33;90.19
73106;BME280;61559;50.476;15.588;2023-02-19T03:42:34;97295.01;;;6.33;90.23
73106;BME280;61559;50.476;15.588;2023-02-19T03:45:25;97297.11;;;6.33;90.37
73106;BME280;61559;50.476;15.588;2023-02-19T03:48:06;97294.05;;;6.32;90.40
73106;BME280;61559;50.476;15.588;2023-02-19T03:50:48;97292.09;;;6.33;90.37
73106;BME280;61559;50.476;15.588;2023-02-19T03:53:25;97290.45;;;6.33;90.41
73106;BME280;61559;50.476;15.588;2023-02-19T03:56:06;97290.27;;;6.32;90.57
73106;BME280;61559;50.476;15.588;2023-02-19T03:58:43;97287.75;;;6.32;90.60
73106;BME280;61559;50.476;15.588;2023-02-19T04:01:23;97286.67;;;6.33;90.54
73106;BME280;61559;50.476;15.588;2023-02-19T04:04:00;97286.30;;;6.33;90.56
73106;BME280;61559;50.476;15.588;2023-02-19T04:06:34;97283.15;;;6.32;90.59
73106;BME280;61559;50.476;15.588;2023-02-19T04:09:09;97272.02;;;6.32;90.74
73106;BME280;61559;50.476;15.588;2023-02-19T04:11:41;97269.41;;;6.31;90.86
73106;BME280;61559;50.476;15.588;2023-02-19T04:14:16;97268.66;;;6.31;90.95
73106;BME280;61559;50.476;15.588;2023-02-19T04:16:52;97272.00;;;6.29;90.99
73106;BME280;61559;50.476;15.588;2023-02-19T04:19:26;97275.24;;;6.28;91.16
73106;BME280;61559;50.476;15.588;2023-02-19T04:21:59;97273.88;;;6.27;91.22
73106;BME280;61559;50.476;15.588;2023-02-19T04:24:33;97266.23;;;6.26;91.18
73106;BME280;61559;50.476;15.588;2023-02-19T04:27:06;97264.04;;;6.26;91.31
73106;BME280;61559;50.476;15.588;2023-02-19T04:29:39;97264.80;;;6.25;91.51
73106;BME280;61559;50.476;15.588;2023-02-19T04:32:11;97262.77;;;6.25;91.52
73106;BME280;61559;50.476;15.588;2023-02-19T04:34:42;97261.02;;;6.26;91.61
73106;BME280;61559;50.476;15.588;2023-02-19T04:37:13;97257.73;;;6.26;91.76
73106;BME280;61559;50.476;15.588;2023-02-19T04:39:43;97252.52;;;6.27;91.69
73106;BME280;61559;50.476;15.588;2023-02-19T04:42:14;97251.23;;;6.24;91.75
73106;BME280;61559;50.476;15.588;2023-02-19T04:44:45;97243.89;;;6.25;91.83
73106;BME280;61559;50.476;15.588;2023-02-19T04:47:17;97241.16;;;6.26;92.04
73106;BME280;61559;50.476;15.588;2023-02-19T04:49:48;97239.48;;;6.26;92.08
73106;BME280;61559;50.476;15.588;2023-02-19T04:52:19;97241.11;;;6.27;92.11
73106;BME280;61559;50.476;15.588;2023-02-19T04:54:50;97241.73;;;6.26;92.14
73106;BME280;61559;50.476;15.588;2023-02-19T04:57:21;97239.45;;;6.25;92.12
73106;BME280;61559;50.476;15.588;2023-02-19T04:59:52;97239.80;;;6.25;92.16
73106;BME280;61559;50.476;15.588;2023-02-19T05:02:23;97237.39;;;6.25;92.05
73106;BME280;61559;50.476;15.588;2023-02-19T05:04:55;97235.75;;;6.26;92.10
73106;BME280;61559;50.476;15.588;2023-02-19T05:07:25;97229.14;;;6.27;92.13
73106;BME280;61559;50.476;15.588;2023-02-19T05:09:56;97226.95;;;6.27;92.21
73106;BME280;61559;50.476;15.588;2023-02-19T05:12:29;97231.35;;;6.26;92.21
73106;BME280;61559;50.476;15.588;2023-02-19T05:15:01;97229.88;;;6.25;92.16
73106;BME280;61559;50.476;15.588;2023-02-19T05:17:32;97231.22;;;6.25;92.25
73106;BME280;61559;50.476;15.588;2023-02-19T05:20:05;97228.53;;;6.23;92.34
73106;BME280;61559;50.476;15.588;2023-02-19T05:22:36;97227.68;;;6.22;92.33
73106;BME280;61559;50.476;15.588;2023-02-19T05:25:08;97220.73;;;6.22;92.59
73106;BME280;61559;50.476;15.588;2023-02-19T05:27:39;97214.27;;;6.23;92.54
73106;BME280;61559;50.476;15.588;2023-02-19T05:30:09;97210.39;;;6.23;92.58
73106;BME280;61559;50.476;15.588;2023-02-19T05:32:40;97204.89;;;6.21;92.53
73106;BME280;61559;50.476;15.588;2023-02-19T05:35:10;97199.77;;;6.22;92.48
73106;BME280;61559;50.476;15.588;2023-02-19T05:37:41;97194.52;;;6.21;92.58
73106;BME280;61559;50.476;15.588;2023-02-19T05:40:12;97192.52;;;6.21;92.64
73106;BME280;61559;50.476;15.588;2023-02-19T05:42:43;97190.84;;;6.21;92.61
73106;BME280;61559;50.476;15.588;2023-02-19T05:45:14;97187.20;;;6.21;92.73
73106;BME280;61559;50.476;15.588;2023-02-19T05:47:44;97189.08;;;6.22;92.66
73106;BME280;61559;50.476;15.588;2023-02-19T05:50:15;97186.90;;;6.21;92.80
73106;BME280;61559;50.476;15.588;2023-02-19T05:52:47;97183.27;;;6.21;92.77
73106;BME280;61559;50.476;15.588;2023-02-19T05:55:18;97183.39;;;6.22;92.73
73106;BME280;61559;50.476;15.588;2023-02-19T05:57:49;97179.44;;;6.23;92.76
73106;BME280;61559;50.476;15.588;2023-02-19T06:00:21;97177.48;;;6.24;92.86
73106;BME280;61559;50.476;15.588;2023-02-19T06:02:55;97176.77;;;6.24;92.72
73106;BME280;61559;50.476;15.588;2023-02-19T06:05:26;97176.70;;;6.24;92.79
73106;BME280;61559;50.476;15.588;2023-02-19T06:07:57;97174.75;;;6.25;92.82
73106;BME280;61559;50.476;15.588;2023-02-19T06:10:28;97173.66;;;6.25;92.91
73106;BME280;61559;50.476;15.588;2023-02-19T06:12:58;97176.86;;;6.24;93.11
73106;BME280;61559;50.476;15.588;2023-02-19T06:15:29;97178.52;;;6.23;93.10
73106;BME280;61559;50.476;15.588;2023-02-19T06:18:00;97176.06;;;6.23;93.16
73106;BME280;61559;50.476;15.588;2023-02-19T06:20:31;97179.34;;;6.23;93.07
73106;BME280;61559;50.476;15.588;2023-02-19T06:23:02;97182.02;;;6.22;93.18
73106;BME280;61559;50.476;15.588;2023-02-19T06:25:32;97177.73;;;6.22;93.24
73106;BME280;61559;50.476;15.588;2023-02-19T06:28:03;97176.69;;;6.20;93.24
73106;BME280;61559;50.476;15.588;2023-02-19T06:30:32;97177.60;;;6.20;93.38
73106;BME280;61559;50.476;15.588;2023-02-19T06:33:04;97177.31;;;6.19;93.40
73106;BME280;61559;50.476;15.588;2023-02-19T06:35:35;97175.81;;;6.20;93.49
73106;BME280;61559;50.476;15.588;2023-02-19T06:38:04;97169.88;;;6.21;93.62
73106;BME280;61559;50.476;15.588;2023-02-19T06:40:35;97172.42;;;6.21;93.67
73106;BME280;61559;50.476;15.588;2023-02-19T06:43:05;97170.30;;;6.22;93.62
73106;BME280;61559;50.476;15.588;2023-02-19T06:45:37;97165.09;;;6.22;93.64
73106;BME280;61559;50.476;15.588;2023-02-19T06:48:08;97162.56;;;6.23;93.66
73106;BME280;61559;50.476;15.588;2023-02-19T06:50:39;97165.48;;;6.25;93.67
73106;BME280;61559;50.476;15.588;2023-02-19T06:53:10;97171.80;;;6.27;93.67
73106;BME280;61559;50.476;15.588;2023-02-19T06:55:40;97168.77;;;6.28;93.77
73106;BME280;61559;50.476;15.588;2023-02-19T06:58:11;97170.48;;;6.27;93.83
73106;BME280;61559;50.476;15.588;2023-02-19T07:00:42;97176.80;;;6.28;93.78
73106;BME280;61559;50.476;15.588;2023-02-19T07:03:11;97180.56;;;6.29;93.89
73106;BME280;61559;50.476;15.588;2023-02-19T07:05:42;97184.88;;;6.28;93.79
73106;BME280;61559;50.476;15.588;2023-02-19T07:08:13;97195.98;;;6.30;93.77
73106;BME280;61559;50.476;15.588;2023-02-19T07:10:52;97202.09;;;6.32;93.64
73106;BME280;61559;50.476;15.588;2023-02-19T07:13:21;97207.48;;;6.33;93.63
73106;BME280;61559;50.476;15.588;2023-02-19T07:15:58;97214.91;;;6.33;93.63
73106;BME280;61559;50.476;15.588;2023-02-19T07:18:30;97220.38;;;6.35;93.59
73106;BME280;61559;50.476;15.588;2023-02-19T07:21:04;97216.26;;;6.37;93.56
73106;BME280;61559;50.476;15.588;2023-02-19T07:23:36;97225.84;;;6.39;93.54
73106;BME280;61559;50.476;15.588;2023-02-19T07:26:08;97219.44;;;6.39;93.25
73106;BME280;61559;50.476;15.588;2023-02-19T07:28:40;97220.06;;;6.41;93.10
73106;BME280;61559;50.476;15.588;2023-02-19T07:31:09;97221.02;;;6.42;92.60
73106;BME280;61559;50.476;15.588;2023-02-19T07:33:42;97228.02;;;6.40;91.93
73106;BME280;61559;50.476;15.588;2023-02-19T07:36:16;97235.86;;;6.39;91.64
73106;BME280;61559;50.476;15.588;2023-02-19T07:38:50;97239.80;;;6.36;91.17
73106;BME280;61559;50.476;15.588;2023-02-19T07:41:25;97244.21;;;6.33;91.17
73106;BME280;61559;50.476;15.588;2023-02-19T07:43:56;97249.35;;;6.29;91.35
73106;BME280;61559;50.476;15.588;2023-02-19T07:46:28;97253.02;;;6.26;91.62
73106;BME280;61559;50.476;15.588;2023-02-19T07:48:59;97247.73;;;6.28;91.79
73106;BME280;61559;50.476;15.588;2023-02-19T07:51:31;97241.34;;;6.31;91.75
73106;BME280;61559;50.476;15.588;2023-02-19T07:54:02;97239.73;;;6.35;91.60
73106;BME280;61559;50.476;15.588;2023-02-19T07:56:31;97236.66;;;6.38;91.27
73106;BME280;61559;50.476;15.588;2023-02-19T07:59:02;97237.88;;;6.38;91.03
73106;BME280;61559;50.476;15.588;2023-02-19T08:01:33;97243.40;;;6.40;90.65
73106;BME280;61559;50.476;15.588;2023-02-19T08:04:22;97245.46;;;6.42;90.76
73106;BME280;61559;50.476;15.588;2023-02-19T08:06:54;97241.89;;;6.45;90.86
73106;BME280;61559;50.476;15.588;2023-02-19T08:09:25;97233.27;;;6.49;91.09
73106;BME280;61559;50.476;15.588;2023-02-19T08:11:56;97237.34;;;6.55;91.10
73106;BME280;61559;50.476;15.588;2023-02-19T08:14:45;97240.73;;;6.65;91.16
73106;BME280;61559;50.476;15.588;2023-02-19T08:17:16;97243.04;;;6.73;90.70
73106;BME280;61559;50.476;15.588;2023-02-19T08:19:47;97250.73;;;6.80;90.26
73106;BME280;61559;50.476;15.588;2023-02-19T08:22:18;97247.66;;;6.87;89.92
73106;BME280;61559;50.476;15.588;2023-02-19T08:24:49;97248.98;;;6.93;89.58
73106;BME280;61559;50.476;15.588;2023-02-19T08:27:21;97256.19;;;6.97;89.15
73106;BME280;61559;50.476;15.588;2023-02-19T08:29:52;97258.83;;;7.00;88.88
73106;BME280;61559;50.476;15.588;2023-02-19T08:32:23;97260.08;;;7.02;88.73
73106;BME280;61559;50.476;15.588;2023-02-19T08:34:54;97263.98;;;7.02;88.67
73106;BME280;61559;50.476;15.588;2023-02-19T08:37:23;97264.64;;;6.99;88.29
73106;BME280;61559;50.476;15.588;2023-02-19T08:39:55;97268.36;;;6.95;88.46
73106;BME280;61559;50.476;15.588;2023-02-19T08:42:24;97264.29;;;6.92;88.43
73106;BME280;61559;50.476;15.588;2023-02-19T08:44:55;97264.27;;;6.88;88.25
73106;BME280;61559;50.476;15.588;2023-02-19T08:47:24;97270.27;;;6.86;88.06
73106;BME280;61559;50.476;15.588;2023-02-19T08:49:55;97273.29;;;6.83;88.37
73106;BME280;61559;50.476;15.588;2023-02-19T08:52:26;97284.64;;;6.84;88.32
73106;BME280;61559;50.476;15.588;2023-02-19T08:54:58;97291.05;;;6.86;88.48
73106;BME280;61559;50.476;15.588;2023-02-19T08:57:30;97285.48;;;6.90;88.75
73106;BME280;61559;50.476;15.588;2023-02-19T09:00:02;97284.29;;;6.97;88.56
73106;BME280;61559;50.476;15.588;2023-02-19T09:02:33;97289.59;;;7.01;88.24
73106;BME280;61559;50.476;15.588;2023-02-19T09:05:05;97293.05;;;7.04;88.12
73106;BME280;61559;50.476;15.588;2023-02-19T09:07:36;97300.13;;;7.06;88.14
73106;BME280;61559;50.476;15.588;2023-02-19T09:10:08;97302.80;;;7.09;88.13
73106;BME280;61559;50.476;15.588;2023-02-19T09:12:40;97309.84;;;7.14;88.12
73106;BME280;61559;50.476;15.588;2023-02-19T09:15:09;97308.79;;;7.21;88.32
73106;BME280;61559;50.476;15.588;2023-02-19T09:17:40;97308.95;;;7.23;88.30
73106;BME280;61559;50.476;15.588;2023-02-19T09:20:12;97313.33;;;7.27;88.37
73106;BME280;61559;50.476;15.588;2023-02-19T09:22:43;97307.98;;;7.30;88.16
73106;BME280;61559;50.476;15.588;2023-02-19T09:25:15;97314.71;;;7.31;87.91
73106;BME280;61559;50.476;15.588;2023-02-19T09:27:46;97319.33;;;7.32;87.72
73106;BME280;61559;50.476;15.588;2023-02-19T09:30:17;97319.42;;;7.32;87.35
73106;BME280;61559;50.476;15.588;2023-02-19T09:32:49;97329.30;;;7.35;87.38
73106;BME280;61559;50.476;15.588;2023-02-19T09:35:20;97328.61;;;7.38;87.44
73106;BME280;61559;50.476;15.588;2023-02-19T09:37:49;97337.33;;;7.45;87.50
73106;BME280;61559;50.476;15.588;2023-02-19T09:40:21;97338.83;;;7.49;87.25
73106;BME280;61559;50.476;15.588;2023-02-19T09:42:52;97344.75;;;7.55;87.03
73106;BME280;61559;50.476;15.588;2023-02-19T09:45:24;97351.54;;;7.63;86.95
73106;BME280;61559;50.476;15.588;2023-02-19T09:47:57;97357.64;;;7.72;86.84
73106;BME280;61559;50.476;15.588;2023-02-19T09:50:35;97363.06;;;7.80;86.92
73106;BME280;61559;50.476;15.588;2023-02-19T09:53:13;97364.51;;;7.79;86.19
73106;BME280;61559;50.476;15.588;2023-02-19T09:55:45;97367.33;;;7.75;86.33
73106;BME280;61559;50.476;15.588;2023-02-19T09:58:23;97375.40;;;7.67;85.76
73106;BME280;61559;50.476;15.588;2023-02-19T10:00:57;97384.83;;;7.60;86.18
73106;BME280;61559;50.476;15.588;2023-02-19T10:03:31;97386.81;;;7.56;86.48
73106;BME280;61559;50.476;15.588;2023-02-19T10:06:07;97396.27;;;7.50;85.83
73106;BME280;61559;50.476;15.588;2023-02-19T10:08:44;97409.20;;;7.44;85.28
73106;BME280;61559;50.476;15.588;2023-02-19T10:11:16;97419.19;;;7.42;85.70
73106;BME280;61559;50.476;15.588;2023-02-19T10:13:50;97424.05;;;7.42;85.11
73106;BME280;61559;50.476;15.588;2023-02-19T10:16:25;97428.75;;;7.43;84.41
73106;BME280;61559;50.476;15.588;2023-02-19T10:18:57;97423.75;;;7.44;84.08
73106;BME280;61559;50.476;15.588;2023-02-19T10:21:29;97422.60;;;7.43;83.84
73106;BME280;61559;50.476;15.588;2023-02-19T10:24:02;97426.64;;;7.43;83.00
73106;BME280;61559;50.476;15.588;2023-02-19T10:26:35;97436.06;;;7.41;82.80
73106;BME280;61559;50.476;15.588;2023-02-19T10:29:08;97441.95;;;7.39;82.56
73106;BME280;61559;50.476;15.588;2023-02-19T10:31:39;97448.97;;;7.41;83.45
73106;BME280;61559;50.476;15.588;2023-02-19T10:34:18;97454.35;;;7.46;82.98
73106;BME280;61559;50.476;15.588;2023-02-19T10:36:51;97460.31;;;7.43;81.66
73106;BME280;61559;50.476;15.588;2023-02-19T10:39:39;97453.42;;;7.36;80.92
73106;BME280;61559;50.476;15.588;2023-02-19T10:42:22;97447.73;;;7.31;80.87
73106;BME280;61559;50.476;15.588;2023-02-19T10:44:56;97444.95;;;7.26;81.04
73106;BME280;61559;50.476;15.588;2023-02-19T10:47:32;97447.07;;;7.16;79.57
73106;BME280;61559;50.476;15.588;2023-02-19T10:50:05;97450.06;;;7.04;79.35
73106;BME280;61559;50.476;15.588;2023-02-19T10:52:37;97456.68;;;6.98;79.91
73106;BME280;61559;50.476;15.588;2023-02-19T10:55:20;97466.25;;;6.95;80.45
73106;BME280;61559;50.476;15.588;2023-02-19T10:57:55;97472.77;;;6.94;80.85
73106;BME280;61559;50.476;15.588;2023-02-19T11:00:28;97473.95;;;6.97;79.91
73106;BME280;61559;50.476;15.588;2023-02-19T11:03:18;97464.55;;;6.99;80.15
73106;BME280;61559;50.476;15.588;2023-02-19T11:05:56;97471.80;;;7.03;80.02
73106;BME280;61559;50.476;15.588;2023-02-19T11:08:44;97485.91;;;7.02;79.42
73106;BME280;61559;50.476;15.588;2023-02-19T11:11:33;97503.48;;;6.94;79.14
73106;BME280;61559;50.476;15.588;2023-02-19T11:14:15;97504.17;;;6.86;79.64
73106;BME280;61559;50.476;15.588;2023-02-19T11:16:49;97512.41;;;6.83;79.76
73106;BME280;61559;50.476;15.588;2023-02-19T11:19:29;97521.31;;;6.84;80.60
73106;BME280;61559;50.476;15.588;2023-02-19T11:22:02;97525.80;;;6.84;78.95
73106;BME280;61559;50.476;15.588;2023-02-19T11:24:50;97531.85;;;6.78;77.26
73106;BME280;61559;50.476;15.588;2023-02-19T11:27:27;97536.25;;;6.71;77.28
73106;BME280;61559;50.476;15.588;2023-02-19T11:33:21;97546.67;;;6.55;74.60
73106;BME280;61559;50.476;15.588;2023-02-19T11:35:59;97540.34;;;6.50;74.70
73106;BME280;61559;50.476;15.588;2023-02-19T11:38:31;97539.83;;;6.47;75.07
73106;BME280;61559;50.476;15.588;2023-02-19T11:41:07;97539.41;;;6.45;75.86
73106;BME280;61559;50.476;15.588;2023-02-19T11:43:51;97534.14;;;6.47;77.06
73106;BME280;61559;50.476;15.588;2023-02-19T11:46:36;97538.13;;;6.48;74.20
73106;BME280;61559;50.476;15.588;2023-02-19T11:49:19;97548.13;;;6.42;73.05
73106;BME280;61559;50.476;15.588;2023-02-19T11:52:05;97557.45;;;6.31;72.44
73106;BME280;61559;50.476;15.588;2023-02-19T11:54:48;97558.23;;;6.22;72.92
73106;BME280;61559;50.476;15.588;2023-02-19T11:57:33;97568.11;;;6.17;72.86
73106;BME280;61559;50.476;15.588;2023-02-19T12:00:26;97571.52;;;6.15;73.10
73106;BME280;61559;50.476;15.588;2023-02-19T12:03:21;97572.21;;;6.16;74.26
73106;BME280;61559;50.476;15.588;2023-02-19T12:06:15;97568.36;;;6.14;72.81
73106;BME280;61559;50.476;15.588;2023-02-19T12:11:52;97579.71;;;5.95;71.97
73106;BME280;61559;50.476;15.588;2023-02-19T12:14:52;97578.44;;;5.88;72.20
73106;BME280;61559;50.476;15.588;2023-02-19T12:17:42;97586.96;;;5.88;72.52
73106;BME280;61559;50.476;15.588;2023-02-19T12:20:23;97590.45;;;5.90;71.67
73106;BME280;61559;50.476;15.588;2023-02-19T12:23:14;97594.64;;;5.95;71.48
73106;BME280;61559;50.476;15.588;2023-02-19T12:25:58;97603.42;;;6.05;71.16
73106;BME280;61559;50.476;15.588;2023-02-19T12:28:54;97599.40;;;6.06;69.21
73106;BME280;61559;50.476;15.588;2023-02-19T12:34:39;97611.13;;;6.08;69.11
73106;BME280;61559;50.476;15.588;2023-02-19T12:37:16;97627.42;;;6.09;69.23
73106;BME280;61559;50.476;15.588;2023-02-19T12:39:58;97636.13;;;6.08;69.57
73106;BME280;61559;50.476;15.588;2023-02-19T12:42:43;97640.19;;;6.08;68.72
73106;BME280;61559;50.476;15.588;2023-02-19T12:45:23;97639.48;;;6.03;67.23
73106;BME280;61559;50.476;15.588;2023-02-19T12:48:02;97644.89;;;6.00;67.07
73106;BME280;61559;50.476;15.588;2023-02-19T12:50:38;97653.29;;;5.99;68.07
73106;BME280;61559;50.476;15.588;2023-02-19T12:53:17;97653.58;;;5.96;66.95
73106;BME280;61559;50.476;15.588;2023-02-19T12:55:52;97662.75;;;5.86;66.50
73106;BME280;61559;50.476;15.588;2023-02-19T12:58:29;97654.75;;;5.77;67.15
73106;BME280;61559;50.476;15.588;2023-02-19T13:01:02;97657.89;;;5.69;67.35
73106;BME280;61559;50.476;15.588;2023-02-19T13:03:36;97655.74;;;5.63;67.55
73106;BME280;61559;50.476;15.588;2023-02-19T13:06:14;97655.98;;;5.60;68.87
73106;BME280;61559;50.476;15.588;2023-02-19T13:08:55;97652.27;;;5.58;68.97
73106;BME280;61559;50.476;15.588;2023-02-19T13:11:39;97665.86;;;5.53;67.58
73106;BME280;61559;50.476;15.588;2023-02-19T13:14:19;97671.71;;;5.43;67.07
73106;BME280;61559;50.476;15.588;2023-02-19T13:16:53;97677.81;;;5.41;68.02
73106;BME280;61559;50.476;15.588;2023-02-19T13:19:28;97674.20;;;5.31;66.40
73106;BME280;61559;50.476;15.588;2023-02-19T13:22:07;97685.59;;;5.24;67.21
73106;BME280;61559;50.476;15.588;2023-02-19T13:25:04;97692.81;;;5.22;67.82
73106;BME280;61559;50.476;15.588;2023-02-19T13:27:54;97687.04;;;5.22;67.48
73106;BME280;61559;50.476;15.588;2023-02-19T13:30:39;97683.77;;;5.23;68.15
73106;BME280;61559;50.476;15.588;2023-02-19T13:33:29;97689.34;;;5.28;68.43
73106;BME280;61559;50.476;15.588;2023-02-19T13:36:15;97698.82;;;5.33;68.08
73106;BME280;61559;50.476;15.588;2023-02-19T13:38:53;97702.59;;;5.25;66.73
73106;BME280;61559;50.476;15.588;2023-02-19T13:41:30;97719.10;;;5.23;66.80
73106;BME280;61559;50.476;15.588;2023-02-19T13:44:04;97721.89;;;5.15;65.52
73106;BME280;61559;50.476;15.588;2023-02-19T13:46:39;97718.66;;;5.10;66.65
73106;BME280;61559;50.476;15.588;2023-02-19T13:49:44;97723.33;;;5.04;66.65
73106;BME280;61559;50.476;15.588;2023-02-19T13:52:39;97726.65;;;4.95;65.49
73106;BME280;61559;50.476;15.588;2023-02-19T13:55:45;97722.34;;;4.87;65.35